Time;durP1;ratioP1;P1;durP2;ratioP2;P2;SDS_P1;SDS_P2;PMS_P1;PMS_P2;Temp;Humidity;BMP_temperature;BMP_pressure;BME280_temperature;BME280_humidity;BME280_pressure;Samples;Min_cycle;Max_cycle;Signal;HPM_P1;HPM_P2
2022/05/14 00:00:55;;;;;;;3.30;2.63;;;13.00;99.90;;;;;;5050122;28;20441;-68
2022/05/14 00:03:20;;;;;;;3.73;2.17;;;13.00;99.90;;;;;;5049963;28;20492;-68
2022/05/14 00:05:47;;;;;;;5.23;2.57;;;13.30;99.90;;;;;;5049778;28;20198;-68
2022/05/14 00:08:13;;;;;;;3.23;2.30;;;13.30;99.90;;;;;;5049757;28;20225;-69
2022/05/14 00:13:24;;;;;;;2.60;2.40;;;13.10;99.90;;;;;;5050101;28;20420;-69
2022/05/14 00:15:51;;;;;;;2.60;2.40;;;13.00;99.90;;;;;;5052356;28;20892;-69
2022/05/14 00:18:16;;;;;;;3.40;2.73;;;13.00;99.90;;;;;;5054100;28;20410;-69
2022/05/14 00:20:42;;;;;;;2.80;2.50;;;13.10;99.90;;;;;;5054131;28;20408;-69
2022/05/14 00:23:08;;;;;;;2.23;2.13;;;13.00;99.90;;;;;;5053765;28;20636;-69
2022/05/14 00:25:35;;;;;;;2.60;2.40;;;12.90;99.90;;;;;;5035807;28;20166;-69
2022/05/14 00:28:01;;;;;;;4.77;2.90;;;12.80;99.90;;;;;;5035891;28;20907;-69
2022/05/14 00:30:29;;;;;;;3.33;2.67;;;12.90;99.90;;;;;;5054874;28;20471;-69
2022/05/14 00:32:55;;;;;;;3.60;2.17;;;12.80;99.90;;;;;;5047556;28;20196;-69
2022/05/14 00:35:21;;;;;;;2.80;2.60;;;12.90;99.90;;;;;;5033878;28;20418;-69
2022/05/14 00:37:47;;;;;;;2.57;2.30;;;12.80;99.90;;;;;;5034075;28;20622;-69
2022/05/14 00:40:26;;;;;;;1.97;1.83;;;12.80;99.90;;;;;;5034063;28;20413;-69
2022/05/14 00:42:52;;;;;;;3.33;3.03;;;12.70;99.90;;;;;;5040392;28;20927;-67
2022/05/14 00:45:18;;;;;;;3.47;3.17;;;12.80;99.90;;;;;;5053510;28;20397;-67
2022/05/14 00:47:46;;;;;;;2.60;2.40;;;12.70;99.90;;;;;;5053413;28;20179;-69
2022/05/14 00:50:27;;;;;;;2.47;2.27;;;12.70;99.90;;;;;;5053752;28;20851;-68
2022/05/14 00:53:00;;;;;;;4.63;2.43;;;12.60;99.90;;;;;;5053139;28;20544;-67
2022/05/14 00:55:27;;;;;;;2.53;1.93;;;12.70;99.90;;;;;;5053121;28;20425;-68
2022/05/14 00:57:53;;;;;;;3.40;2.50;;;12.60;99.90;;;;;;5035283;28;20997;-69
2022/05/14 01:00:22;;;;;;;2.90;2.47;;;12.60;99.90;;;;;;5053297;28;20492;-68
2022/05/14 01:02:48;;;;;;;2.93;2.73;;;12.70;99.90;;;;;;5053176;28;20425;-68
2022/05/14 01:05:17;;;;;;;2.47;2.27;;;12.80;99.90;;;;;;5053481;28;20894;-70
2022/05/14 01:07:43;;;;;;;4.17;3.10;;;12.90;99.90;;;;;;5053732;28;20404;-67
2022/05/14 01:10:11;;;;;;;2.60;2.40;;;12.90;99.90;;;;;;5053086;28;20406;-68
2022/05/14 01:12:41;;;;;;;3.10;2.60;;;12.90;99.90;;;;;;5051398;28;20425;-68
2022/05/14 01:15:17;;;;;;;8.07;2.60;;;13.00;99.90;;;;;;5052782;28;20398;-67
2022/05/14 01:17:43;;;;;;;3.13;2.80;;;13.00;99.90;;;;;;5053215;28;20421;-69
2022/05/14 01:20:09;;;;;;;3.40;3.03;;;13.10;99.90;;;;;;5052947;28;20698;-69
2022/05/14 01:23:00;;;;;;;2.40;2.20;;;13.10;99.90;;;;;;5052808;28;20535;-69
2022/05/14 01:28:25;;;;;;;4.67;3.43;;;13.20;99.90;;;;;;5052951;28;20396;-69
2022/05/14 01:30:54;;;;;;;5.43;3.70;;;13.20;99.90;;;;;;5052556;28;20928;-69
2022/05/14 01:33:20;;;;;;;4.37;3.10;;;13.20;99.90;;;;;;5052556;28;20422;-68
2022/05/14 01:35:46;;;;;;;4.33;3.00;;;13.10;99.90;;;;;;5052455;28;20398;-68
2022/05/14 01:38:12;;;;;;;7.10;4.13;;;13.20;99.90;;;;;;5052290;28;20679;-69
2022/05/14 01:40:38;;;;;;;4.47;4.07;;;13.20;99.90;;;;;;5052398;28;20460;-67
2022/05/14 01:43:03;;;;;;;3.17;2.80;;;13.20;99.90;;;;;;5052109;28;20199;-68
2022/05/14 01:45:29;;;;;;;3.53;3.10;;;13.20;99.90;;;;;;5052343;28;20163;-68
2022/05/14 01:47:55;;;;;;;4.33;2.93;;;13.20;99.90;;;;;;5052364;28;20398;-68
2022/05/14 01:50:21;;;;;;;4.10;2.87;;;13.20;99.90;;;;;;5052312;28;20745;-69
2022/05/14 01:52:46;;;;;;;2.87;2.67;;;13.20;99.90;;;;;;5052207;28;20203;-70
2022/05/14 01:55:11;;;;;;;4.93;3.23;;;13.30;99.90;;;;;;5052046;28;20183;-68
2022/05/14 01:57:37;;;;;;;3.37;3.17;;;13.20;99.90;;;;;;5034147;28;20181;-68
2022/05/14 02:00:08;;;;;;;4.87;3.27;;;13.20;99.90;;;;;;5052222;28;20241;-68
2022/05/14 02:02:34;;;;;;;4.23;3.30;;;13.20;99.90;;;;;;5052586;28;20282;-68
2022/05/14 02:05:00;;;;;;;3.73;3.43;;;13.30;99.90;;;;;;5034394;28;20929;-68
2022/05/14 02:07:26;;;;;;;4.40;2.90;;;13.20;99.90;;;;;;5052889;28;20174;-68
2022/05/14 02:09:51;;;;;;;3.03;2.60;;;13.30;99.90;;;;;;5052568;28;20167;-69
2022/05/14 02:12:17;;;;;;;5.03;3.43;;;13.20;99.90;;;;;;5051963;28;20530;-68
2022/05/14 02:14:44;;;;;;;4.17;3.40;;;13.20;99.90;;;;;;5052127;28;20174;-67
2022/05/14 02:17:09;;;;;;;6.03;4.00;;;13.20;99.90;;;;;;5052296;28;20228;-68
2022/05/14 02:19:35;;;;;;;5.30;3.80;;;13.20;99.90;;;;;;5052497;28;20409;-69
2022/05/14 02:22:00;;;;;;;3.90;3.60;;;13.20;99.90;;;;;;5052092;28;20174;-67
2022/05/14 02:24:26;;;;;;;2.80;2.60;;;13.20;99.90;;;;;;5051907;28;20203;-68
2022/05/14 02:26:51;;;;;;;4.20;2.70;;;13.20;99.90;;;;;;5051953;28;20177;-69
2022/05/14 02:29:16;;;;;;;3.83;2.93;;;13.20;99.90;;;;;;5051893;28;20536;-68
2022/05/14 02:31:42;;;;;;;4.30;3.90;;;13.20;99.90;;;;;;5052231;28;20171;-69
2022/05/14 02:34:07;;;;;;;3.43;3.13;;;13.20;99.90;;;;;;5051677;28;20191;-69
2022/05/14 02:36:33;;;;;;;3.37;3.17;;;13.20;99.90;;;;;;5051652;28;20174;-68
2022/05/14 02:38:58;;;;;;;3.70;3.40;;;13.20;99.90;;;;;;5051259;28;20183;-68
2022/05/14 02:41:24;;;;;;;3.60;2.70;;;13.20;99.90;;;;;;5051577;28;20186;-68
2022/05/14 02:43:49;;;;;;;3.50;2.90;;;13.20;99.90;;;;;;5051522;28;20203;-68
2022/05/14 02:46:15;;;;;;;2.43;2.23;;;13.20;99.90;;;;;;5051489;28;20220;-67
2022/05/14 02:48:41;;;;;;;3.70;3.03;;;13.20;99.90;;;;;;5051550;28;20249;-67
2022/05/14 02:51:07;;;;;;;4.10;3.37;;;13.20;99.90;;;;;;5051412;28;20218;-68
2022/05/14 02:55:58;;;;;;;3.10;2.80;;;13.10;99.90;;;;;;5045852;22;20230;-73
2022/05/14 03:01:07;;;;;;;4.83;2.93;;;13.20;99.90;;;;;;5032734;28;20170;-72
2022/05/14 03:03:33;;;;;;;5.13;3.20;;;13.10;99.90;;;;;;5032111;28;20839;-71
2022/05/14 03:05:59;;;;;;;3.70;2.73;;;13.10;99.90;;;;;;5032336;28;20240;-72
2022/05/14 03:08:25;;;;;;;6.53;3.40;;;13.10;99.90;;;;;;5032346;28;20431;-72
2022/05/14 03:10:51;;;;;;;3.60;2.80;;;13.00;99.90;;;;;;5032404;28;20175;-73
2022/05/14 03:13:17;;;;;;;3.83;3.43;;;13.00;99.90;;;;;;5032123;28;20183;-72
2022/05/14 03:15:42;;;;;;;3.90;2.77;;;12.90;99.90;;;;;;5031952;28;20191;-72
2022/05/14 03:18:08;;;;;;;2.83;2.07;;;12.90;99.90;;;;;;5032402;28;20421;-72
2022/05/14 03:20:33;;;;;;;5.60;2.60;;;12.80;99.90;;;;;;5032202;28;20280;-72
2022/05/14 03:22:59;;;;;;;3.17;2.97;;;12.70;99.90;;;;;;5031862;28;20171;-72
2022/05/14 03:25:25;;;;;;;3.10;2.63;;;12.70;99.90;;;;;;5031645;28;20226;-72
2022/05/14 03:27:51;;;;;;;2.70;2.37;;;12.70;99.90;;;;;;5031899;28;20247;-72
2022/05/14 03:30:17;;;;;;;5.43;3.70;;;12.60;99.90;;;;;;5031821;28;20497;-72
2022/05/14 03:32:43;;;;;;;2.40;2.23;;;12.60;99.90;;;;;;5032025;28;20250;-72
2022/05/14 03:35:08;;;;;;;8.00;3.80;;;12.60;99.90;;;;;;5031613;28;20497;-72
2022/05/14 03:37:35;;;;;;;2.67;2.47;;;12.60;99.90;;;;;;5031874;28;20172;-72
2022/05/14 03:40:00;;;;;;;2.97;2.67;;;12.60;99.90;;;;;;5031598;28;20160;-72
2022/05/14 03:42:26;;;;;;;3.10;2.90;;;12.50;99.90;;;;;;5031513;28;20472;-72
2022/05/14 03:44:52;;;;;;;3.47;2.87;;;12.50;99.90;;;;;;5031537;28;20195;-72
2022/05/14 03:47:17;;;;;;;2.50;2.30;;;12.50;99.90;;;;;;5031958;28;20402;-72
2022/05/14 03:49:43;;;;;;;4.00;3.13;;;12.50;99.90;;;;;;5031353;28;20208;-72
2022/05/14 03:52:09;;;;;;;3.33;2.40;;;12.60;99.90;;;;;;5035749;28;20164;-72
2022/05/14 03:54:35;;;;;;;3.80;2.50;;;12.60;99.90;;;;;;5035621;28;20207;-72
2022/05/14 03:57:00;;;;;;;6.37;3.20;;;12.50;99.90;;;;;;5035625;28;20413;-72
2022/05/14 03:59:26;;;;;;;4.57;2.40;;;12.50;99.90;;;;;;5034624;28;20176;-72
2022/05/14 04:01:51;;;;;;;3.23;2.93;;;12.60;99.90;;;;;;5035808;28;20175;-74
2022/05/14 04:04:17;;;;;;;2.60;2.23;;;12.60;99.90;;;;;;5035592;28;20260;-71
2022/05/14 04:06:42;;;;;;;3.70;3.30;;;12.60;99.90;;;;;;5035432;28;20234;-72
2022/05/14 04:09:08;;;;;;;3.93;2.80;;;12.60;99.90;;;;;;5035333;28;20170;-71
2022/05/14 04:11:33;;;;;;;2.60;2.40;;;12.60;99.90;;;;;;5035464;28;20172;-71
2022/05/14 04:13:59;;;;;;;2.87;2.27;;;12.60;99.90;;;;;;5035463;28;20195;-73
2022/05/14 04:16:25;;;;;;;3.00;2.80;;;12.60;99.90;;;;;;5033931;28;20630;-72
2022/05/14 04:18:50;;;;;;;2.13;1.93;;;12.60;99.90;;;;;;5035389;28;20430;-72
2022/05/14 04:21:16;;;;;;;7.63;2.30;;;12.70;99.90;;;;;;5035454;28;20638;-72
2022/05/14 04:23:42;;;;;;;2.97;1.97;;;12.70;99.90;;;;;;5034876;28;20219;-72
2022/05/14 04:26:07;;;;;;;2.27;2.07;;;12.80;99.90;;;;;;5034768;28;20159;-72
2022/05/14 04:28:33;;;;;;;2.40;2.17;;;12.80;99.90;;;;;;5034921;28;20758;-72
2022/05/14 04:30:58;;;;;;;3.13;2.50;;;12.90;99.90;;;;;;5035018;28;20583;-72
2022/05/14 04:33:26;;;;;;;2.67;2.47;;;12.90;99.90;;;;;;5034715;28;20214;-72
2022/05/14 04:35:51;;;;;;;2.57;2.37;;;12.90;99.90;;;;;;5034809;28;20191;-72
2022/05/14 04:38:17;;;;;;;3.50;2.50;;;13.00;99.90;;;;;;5034929;28;20497;-72
2022/05/14 04:40:44;;;;;;;6.23;2.40;;;13.00;99.90;;;;;;5033619;28;20634;-72
2022/05/14 04:43:11;;;;;;;5.60;2.40;;;13.00;99.90;;;;;;5034486;28;20285;-72
2022/05/14 04:45:38;;;;;;;3.13;2.83;;;13.20;99.90;;;;;;5034505;28;20841;-72
2022/05/14 04:48:04;;;;;;;8.50;2.37;;;13.20;99.90;;;;;;5034721;28;20746;-71
2022/05/14 04:50:30;;;;;;;5.13;2.13;;;13.20;99.90;;;;;;5034477;28;20410;-72
2022/05/14 04:52:56;;;;;;;3.70;2.33;;;13.30;99.90;;;;;;5034473;28;20436;-72
2022/05/14 04:55:22;;;;;;;2.80;1.80;;;13.30;99.90;;;;;;5034034;28;20446;-72
2022/05/14 04:57:47;;;;;;;4.60;2.03;;;13.60;99.90;;;;;;5034423;28;20685;-72
2022/05/14 05:00:15;;;;;;;3.13;2.30;;;13.60;99.90;;;;;;5034071;28;20237;-72
2022/05/14 05:05:26;;;;;;;6.13;2.73;;;14.10;99.90;;;;;;5033965;28;21038;-73
2022/05/14 05:07:51;;;;;;;5.10;2.07;;;14.60;99.90;;;;;;5034290;28;20993;-73
2022/05/14 05:10:17;;;;;;;2.20;2.00;;;15.00;99.90;;;;;;5033934;28;20480;-72
2022/05/14 05:12:43;;;;;;;2.30;2.07;;;15.40;99.90;;;;;;5033988;28;20180;-71
2022/05/14 05:15:09;;;;;;;1.63;1.53;;;15.70;99.90;;;;;;5033805;28;20255;-72
2022/05/14 05:17:34;;;;;;;6.30;2.10;;;16.10;99.90;;;;;;5034002;28;20186;-72
2022/05/14 05:20:00;;;;;;;3.03;1.80;;;16.00;99.90;;;;;;5034057;28;20275;-72
2022/05/14 05:22:25;;;;;;;3.17;1.77;;;16.00;99.90;;;;;;5033829;28;20182;-72
2022/05/14 05:24:51;;;;;;;2.37;1.80;;;16.80;99.90;;;;;;5034128;28;20755;-72
2022/05/14 05:27:16;;;;;;;2.30;1.50;;;15.90;99.90;;;;;;5034035;28;20546;-72
2022/05/14 05:29:42;;;;;;;1.77;1.67;;;15.90;99.90;;;;;;5033874;28;20253;-72
2022/05/14 05:32:08;;;;;;;3.10;1.70;;;16.30;99.90;;;;;;5033764;28;20176;-72
2022/05/14 05:34:33;;;;;;;3.20;1.70;;;17.00;99.90;;;;;;5033381;28;20201;-73
2022/05/14 05:36:58;;;;;;;1.93;1.60;;;18.00;99.90;;;;;;5033998;28;20496;-73
2022/05/14 05:39:24;;;;;;;1.60;1.50;;;18.60;99.90;;;;;;5033659;28;20177;-73
2022/05/14 05:41:49;;;;;;;1.73;1.47;;;18.70;99.90;;;;;;5033561;28;20177;-73
2022/05/14 05:44:15;;;;;;;1.63;1.40;;;18.00;99.90;;;;;;5033339;28;20213;-73
2022/05/14 05:46:40;;;;;;;3.13;1.53;;;18.20;99.90;;;;;;5033659;28;20174;-73
2022/05/14 05:49:06;;;;;;;2.60;1.93;;;19.00;99.90;;;;;;5033354;28;20629;-73
2022/05/14 05:51:32;;;;;;;1.50;1.40;;;18.80;99.90;;;;;;5033122;28;20583;-73
2022/05/14 05:56:56;;;;;;;1.57;1.47;;;19.40;99.90;;;;;;5033490;28;20967;-73
2022/05/14 05:59:22;;;;;;;5.27;1.90;;;18.30;99.90;;;;;;5033091;28;20770;-73
2022/05/14 06:01:47;;;;;;;5.27;1.77;;;18.80;99.90;;;;;;5033027;28;20406;-73
2022/05/14 06:04:13;;;;;;;2.90;2.03;;;18.50;99.90;;;;;;5032847;28;20549;-75
2022/05/14 06:06:42;;;;;;;2.63;1.67;;;19.60;99.90;;;;;;5032968;28;20201;-73
2022/05/14 06:09:13;;;;;;;2.30;1.30;;;19.10;99.90;;;;;;5033115;28;20410;-73
2022/05/14 06:11:39;;;;;;;2.47;1.80;;;18.70;99.90;;;;;;5032782;28;20406;-73
2022/05/14 06:14:05;;;;;;;2.70;1.30;;;17.80;99.90;;;;;;5031763;28;20967;-73
2022/05/14 06:16:30;;;;;;;4.20;1.90;;;17.40;99.90;;;;;;5032710;28;20415;-72
2022/05/14 06:18:56;;;;;;;1.63;1.40;;;17.30;99.90;;;;;;5032721;28;20543;-72
2022/05/14 06:21:23;;;;;;;3.43;1.67;;;17.10;99.90;;;;;;5032392;28;20259;-71
2022/05/14 06:23:49;;;;;;;3.07;2.20;;;16.90;99.90;;;;;;5032565;28;20191;-72
2022/05/14 06:26:14;;;;;;;5.20;2.00;;;16.60;99.90;;;;;;5032387;28;20421;-71
2022/05/14 06:28:40;;;;;;;6.97;1.80;;;16.70;99.90;;;;;;5032407;28;20187;-71
2022/05/14 06:31:05;;;;;;;2.13;1.50;;;16.90;99.90;;;;;;5027244;28;20182;-72
2022/05/14 06:33:32;;;;;;;4.60;1.90;;;17.20;99.90;;;;;;5031930;28;20221;-72
2022/05/14 06:35:58;;;;;;;3.43;2.30;;;17.00;99.90;;;;;;5031232;28;20191;-71
2022/05/14 06:38:24;;;;;;;4.57;1.80;;;16.30;99.90;;;;;;5031251;28;20409;-72
2022/05/14 06:40:49;;;;;;;3.20;1.70;;;16.30;99.90;;;;;;5032256;28;20849;-72
2022/05/14 06:43:15;;;;;;;2.40;1.43;;;16.80;99.90;;;;;;5032136;28;20196;-72
2022/05/14 06:45:41;;;;;;;2.87;2.07;;;16.90;99.90;;;;;;5032169;28;20299;-72
2022/05/14 06:48:07;;;;;;;3.03;1.70;;;16.60;99.90;;;;;;5022401;28;20176;-72
2022/05/14 06:50:36;;;;;;;5.77;1.77;;;16.80;99.90;;;;;;5012551;28;20410;-72
2022/05/14 06:53:04;;;;;;;4.43;2.00;;;17.10;99.90;;;;;;5012462;28;20175;-72
2022/05/14 06:55:36;;;;;;;2.40;2.20;;;17.40;99.90;;;;;;5021110;28;20457;-71
2022/05/14 06:58:01;;;;;;;2.23;1.87;;;17.30;99.90;;;;;;5031583;28;20406;-71
2022/05/14 07:00:27;;;;;;;2.20;1.57;;;17.50;99.90;;;;;;5032019;28;20468;-71
2022/05/14 07:06:37;;;;;;;3.23;2.20;;;17.20;99.90;;;;;;5031810;28;20171;-72
2022/05/14 07:08:24;;;;;;;6.53;2.40;;;17.90;99.90;;;;;;5032092;28;20467;-72
2022/05/14 07:10:49;;;;;;;2.53;1.80;;;17.30;99.90;;;;;;5032097;28;20405;-72
2022/05/14 07:13:14;;;;;;;7.60;2.67;;;17.40;99.90;;;;;;5031834;28;20174;-72
2022/05/14 07:15:40;;;;;;;1.70;1.60;;;17.80;99.90;;;;;;5031653;28;20656;-71
2022/05/14 07:18:06;;;;;;;3.47;1.93;;;17.40;99.90;;;;;;5031722;28;20222;-72
2022/05/14 07:20:31;;;;;;;4.70;1.57;;;17.70;99.90;;;;;;5031744;28;20172;-72
2022/05/14 07:22:57;;;;;;;4.00;2.33;;;17.30;99.90;;;;;;5031527;28;20263;-72
2022/05/14 07:25:23;;;;;;;6.30;2.13;;;17.30;99.90;;;;;;5031316;28;20211;-74
2022/05/14 07:27:49;;;;;;;2.17;1.97;;;17.30;99.90;;;;;;5031502;28;20458;-72
2022/05/14 07:30:14;;;;;;;1.97;1.77;;;17.30;99.90;;;;;;5031428;28;20179;-72
2022/05/14 07:32:40;;;;;;;2.50;1.83;;;17.40;99.90;;;;;;5031219;28;20646;-72
2022/05/14 07:35:05;;;;;;;6.23;2.90;;;17.20;99.90;;;;;;5031437;28;20290;-72
2022/05/14 07:37:34;;;;;;;2.40;2.17;;;17.70;99.90;;;;;;5031511;28;20175;-71
2022/05/14 07:40:07;;;;;;;4.50;1.97;;;17.20;99.90;;;;;;5031453;28;20222;-72
2022/05/14 07:43:00;;;;;;;2.10;1.80;;;17.10;99.90;;;;;;5031705;28;20811;-73
2022/05/14 07:45:34;;;;;;;2.27;1.70;;;17.00;99.90;;;;;;5031703;28;20511;-71
2022/05/14 07:48:02;;;;;;;3.03;2.10;;;17.50;99.90;;;;;;5031535;28;20451;-71
2022/05/14 07:50:28;;;;;;;3.30;2.40;;;17.40;99.90;;;;;;5031359;28;20554;-72
2022/05/14 07:52:54;;;;;;;17.70;9.63;;;17.90;99.90;;;;;;5031174;28;20481;-72
2022/05/14 07:55:19;;;;;;;32.17;18.87;;;17.90;99.90;;;;;;5031304;28;20687;-72
2022/05/14 07:57:45;;;;;;;4.43;3.50;;;18.20;99.90;;;;;;5031334;28;20170;-71
2022/05/14 08:00:11;;;;;;;9.43;6.57;;;18.20;99.90;;;;;;5031280;28;20167;-71
2022/05/14 08:02:37;;;;;;;8.73;4.90;;;18.70;99.90;;;;;;5031180;28;20169;-72
2022/05/14 08:05:05;;;;;;;10.50;5.40;;;19.00;99.90;;;;;;5028970;28;20545;-72
2022/05/14 08:07:31;;;;;;;7.80;3.63;;;19.30;99.90;;;;;;5011465;28;20544;-73
2022/05/14 08:09:58;;;;;;;19.03;13.20;;;19.90;99.90;;;;;;5011605;28;20536;-73
2022/05/14 08:12:24;;;;;;;3.10;2.30;;;19.40;99.90;;;;;;5011394;28;20403;-73
2022/05/14 08:14:49;;;;;;;16.33;9.90;;;18.70;99.90;;;;;;5011161;28;20440;-73
2022/05/14 08:17:15;;;;;;;7.13;4.70;;;19.30;99.90;;;;;;5011452;28;20179;-72
2022/05/14 08:19:40;;;;;;;20.50;13.87;;;19.50;99.90;;;;;;5011650;28;20206;-73
2022/05/14 08:24:50;;;;;;;11.60;7.30;;;19.80;99.90;;;;;;5011306;28;20209;-72
2022/05/14 08:27:17;;;;;;;4.10;2.20;;;19.20;99.90;;;;;;5011496;28;20495;-72
2022/05/14 08:29:45;;;;;;;3.40;2.20;;;18.90;99.90;;;;;;5011919;28;20166;-72
2022/05/14 08:32:10;;;;;;;5.10;3.30;;;18.70;99.90;;;;;;5015869;28;20412;-72
2022/05/14 08:34:36;;;;;;;19.57;9.97;;;18.60;99.90;;;;;;5030979;28;20431;-71
2022/05/14 08:37:02;;;;;;;3.60;3.30;;;19.50;99.90;;;;;;5033500;28;20182;-73
2022/05/14 08:39:28;;;;;;;2.00;1.60;;;20.20;99.90;;;;;;5033455;28;20451;-72
2022/05/14 08:41:55;;;;;;;4.43;3.40;;;19.60;99.90;;;;;;5034368;28;20673;-73
2022/05/14 08:44:32;;;;;;;3.90;2.77;;;20.10;99.90;;;;;;5034355;28;20571;-72
2022/05/14 08:47:03;;;;;;;2.93;2.30;;;20.70;99.90;;;;;;5034742;28;20419;-73
2022/05/14 08:49:52;;;;;;;6.63;1.57;;;19.90;99.90;;;;;;5034590;28;20833;-73
2022/05/14 08:52:21;;;;;;;7.00;4.27;;;19.80;99.90;;;;;;5034337;28;20432;-73
2022/05/14 08:54:48;;;;;;;7.03;2.60;;;19.90;99.90;;;;;;5041420;23;20506;-67
2022/05/14 08:57:51;;;;;;;2.80;1.90;;;20.90;99.90;;;;;;5014233;28;20412;-66
2022/05/14 09:00:18;;;;;;;4.53;2.30;;;20.40;99.90;;;;;;4996541;28;20811;-67
2022/05/14 09:02:48;;;;;;;6.93;3.97;;;20.20;99.90;;;;;;5014322;28;20392;-68
2022/05/14 09:05:43;;;;;;;3.77;3.30;;;22.10;99.40;;;;;;5013872;28;21031;-67
2022/05/14 09:08:08;;;;;;;1.40;1.30;;;21.70;99.30;;;;;;5014904;28;20438;-68
2022/05/14 09:11:05;;;;;;;4.50;2.50;;;22.70;98.10;;;;;;5014655;28;20411;-68
2022/05/14 09:13:41;;;;;;;3.47;2.40;;;22.30;97.40;;;;;;5014434;28;20190;-67
2022/05/14 09:16:07;;;;;;;1.87;1.67;;;22.50;98.40;;;;;;5013621;28;20522;-68
2022/05/14 09:18:42;;;;;;;3.03;1.83;;;24.00;96.30;;;;;;5013748;28;20941;-67
2022/05/14 09:21:18;;;;;;;2.03;1.77;;;24.10;94.40;;;;;;5013677;28;20260;-67
2022/05/14 09:23:49;;;;;;;5.40;4.03;;;23.60;95.10;;;;;;5013594;28;20430;-68
2022/05/14 09:26:18;;;;;;;2.63;1.93;;;25.20;91.10;;;;;;5013740;28;20494;-67
2022/05/14 09:28:51;;;;;;;15.90;11.57;;;23.00;91.30;;;;;;5013589;28;20403;-67
2022/05/14 09:31:32;;;;;;;7.73;5.50;;;22.40;95.60;;;;;;5013664;28;20471;-67
2022/05/14 09:34:13;;;;;;;6.40;3.63;;;24.00;92.30;;;;;;5013505;28;20415;-68
2022/05/14 09:36:39;;;;;;;6.20;2.80;;;23.00;93.70;;;;;;5013391;28;20411;-68
2022/05/14 09:39:25;;;;;;;2.50;1.30;;;23.20;90.60;;;;;;5013493;28;20411;-69
2022/05/14 09:41:54;;;;;;;2.77;1.93;;;21.50;91.70;;;;;;5012826;28;20576;-67
2022/05/14 09:44:28;;;;;;;8.07;4.60;;;21.30;93.30;;;;;;5013082;28;20443;-67
2022/05/14 09:47:23;;;;;;;3.87;1.53;;;21.90;92.40;;;;;;5013449;28;20746;-66
2022/05/14 09:49:58;;;;;;;5.57;3.33;;;20.70;92.70;;;;;;5013036;28;20392;-69
2022/05/14 09:52:29;;;;;;;2.03;1.60;;;22.20;92.10;;;;;;5013398;28;20416;-69
2022/05/14 09:54:55;;;;;;;1.47;1.20;;;21.80;91.80;;;;;;5012967;28;20464;-66
2022/05/14 09:57:39;;;;;;;2.00;1.43;;;21.10;91.80;;;;;;5013462;28;20865;-66
2022/05/14 10:00:12;;;;;;;5.93;1.63;;;21.30;90.60;;;;;;5013249;28;20390;-66
2022/05/14 10:02:59;;;;;;;3.50;1.90;;;20.40;89.20;;;;;;5012920;28;20839;-66
2022/05/14 10:05:46;;;;;;;4.40;1.53;;;20.50;91.50;;;;;;5012686;28;20429;-66
2022/05/14 10:08:33;;;;;;;1.53;1.40;;;20.90;91.10;;;;;;5012745;28;20449;-66
2022/05/14 10:11:35;;;;;;;3.07;1.90;;;21.80;90.20;;;;;;5013020;28;20503;-66
2022/05/14 10:14:32;;;;;;;4.47;1.30;;;21.20;87.30;;;;;;5012688;28;20400;-66
2022/05/14 10:17:18;;;;;;;2.90;1.83;;;21.40;87.40;;;;;;5007540;28;20425;-66
2022/05/14 10:20:04;;;;;;;4.30;1.77;;;21.30;88.70;;;;;;5012583;28;20414;-67
2022/05/14 10:28:49;;;;;;;5.10;1.70;;;20.90;89.40;;;;;;5013270;28;20417;-67
2022/05/14 10:31:33;;;;;;;2.33;1.50;;;19.50;89.10;;;;;;5013349;28;20762;-70
2022/05/14 10:34:05;;;;;;;4.10;1.57;;;19.60;90.60;;;;;;5012541;28;20725;-67
2022/05/14 10:36:47;;;;;;;3.03;1.90;;;19.50;90.50;;;;;;5012683;28;20402;-68
2022/05/14 10:39:24;;;;;;;2.57;2.33;;;19.60;90.00;;;;;;5012710;28;20818;-68
2022/05/14 10:41:57;;;;;;;2.43;1.50;;;19.50;90.60;;;;;;4994817;28;20421;-68
2022/05/14 10:44:38;;;;;;;3.67;1.87;;;19.80;90.00;;;;;;5012332;28;20544;-68
2022/05/14 10:47:09;;;;;;;4.87;2.70;;;20.10;90.40;;;;;;5012589;28;20416;-67
2022/05/14 10:49:41;;;;;;;3.57;1.50;;;19.90;90.90;;;;;;5012562;28;20405;-67
2022/05/14 10:52:13;;;;;;;4.77;1.60;;;19.90;90.50;;;;;;5012096;28;20426;-67
2022/05/14 10:54:38;;;;;;;4.13;2.00;;;20.30;91.00;;;;;;5012295;28;20454;-68
2022/05/14 10:57:18;;;;;;;3.67;2.37;;;20.70;90.70;;;;;;5012015;28;20904;-68
2022/05/14 10:59:53;;;;;;;2.83;1.60;;;21.10;90.70;;;;;;5012119;28;20193;-68
2022/05/14 11:02:32;;;;;;;4.87;1.83;;;21.00;89.90;;;;;;5012199;28;20394;-67
2022/05/14 11:04:58;;;;;;;3.87;2.23;;;20.80;90.70;;;;;;5011954;28;20464;-66
2022/05/14 11:07:29;;;;;;;2.30;1.97;;;21.10;90.60;;;;;;5012208;28;20769;-67
2022/05/14 11:10:12;;;;;;;2.50;1.40;;;20.70;90.20;;;;;;5012173;28;20500;-67
2022/05/14 11:12:39;;;;;;;4.00;2.40;;;20.80;90.80;;;;;;5012170;28;20457;-67
2022/05/14 11:15:19;;;;;;;2.27;1.87;;;20.90;89.10;;;;;;5011816;28;20439;-67
2022/05/14 11:17:44;;;;;;;2.70;1.40;;;21.40;90.70;;;;;;5012219;28;20843;-66
2022/05/14 11:20:14;;;;;;;2.40;2.03;;;21.40;89.30;;;;;;5011714;28;20523;-66
2022/05/14 11:22:46;;;;;;;2.50;1.57;;;21.10;90.70;;;;;;5011602;28;20226;-67
2022/05/14 11:25:14;;;;;;;4.37;2.07;;;20.80;90.60;;;;;;5011297;28;20514;-67
2022/05/14 11:27:41;;;;;;;4.23;2.07;;;20.70;90.30;;;;;;5011716;28;20923;-67
2022/05/14 11:30:12;;;;;;;5.87;3.97;;;20.80;90.70;;;;;;5011840;28;20790;-67
2022/05/14 11:32:46;;;;;;;5.83;3.17;;;20.80;90.70;;;;;;5011570;28;20424;-67
2022/05/14 11:35:13;;;;;;;2.97;1.77;;;20.80;90.30;;;;;;5011483;28;20429;-67
2022/05/14 11:37:43;;;;;;;4.00;1.77;;;20.60;90.40;;;;;;5011590;28;20425;-67
2022/05/14 11:40:16;;;;;;;3.93;1.83;;;20.20;91.10;;;;;;5011939;28;20507;-67
2022/05/14 11:42:43;;;;;;;3.70;1.67;;;20.00;91.70;;;;;;4994524;28;20931;-67
2022/05/14 11:45:23;;;;;;;3.97;1.77;;;20.30;92.00;;;;;;5011418;28;20600;-68
2022/05/14 11:48:22;;;;;;;5.13;1.70;;;21.00;91.30;;;;;;5012084;28;20403;-68
2022/05/14 11:50:58;;;;;;;5.43;1.97;;;21.10;91.10;;;;;;5011640;28;20530;-67
2022/05/14 11:53:50;;;;;;;4.83;2.57;;;20.70;91.10;;;;;;5008935;28;20448;-67
2022/05/14 11:56:25;;;;;;;3.23;1.50;;;20.60;91.00;;;;;;5011160;28;20863;-68
2022/05/14 11:58:56;;;;;;;3.33;1.37;;;20.50;91.50;;;;;;5011496;28;20404;-67
2022/05/14 12:01:30;;;;;;;4.50;2.87;;;20.60;90.60;;;;;;4993727;28;20450;-68
2022/05/14 12:04:00;;;;;;;3.60;2.10;;;19.90;90.80;;;;;;5012025;28;20843;-68
2022/05/14 12:06:42;;;;;;;4.93;1.90;;;20.30;91.30;;;;;;5011581;28;20433;-68
2022/05/14 12:09:26;;;;;;;6.80;1.93;;;20.60;91.10;;;;;;5011509;28;20439;-68
2022/05/14 12:12:05;;;;;;;2.63;1.80;;;20.60;91.10;;;;;;4995981;28;20888;-67
2022/05/14 12:14:34;;;;;;;3.70;1.87;;;20.40;91.10;;;;;;5015424;28;20438;-69
2022/05/14 12:17:03;;;;;;;2.23;1.30;;;20.80;90.30;;;;;;5015192;28;20422;-67
2022/05/14 12:19:37;;;;;;;2.00;1.80;;;20.50;90.60;;;;;;5013558;28;20471;-68
2022/05/14 12:22:07;;;;;;;4.90;2.50;;;20.30;91.00;;;;;;5015431;28;20777;-67
2022/05/14 12:24:35;;;;;;;3.77;2.33;;;20.30;91.60;;;;;;5013839;28;20833;-68
2022/05/14 12:27:01;;;;;;;3.20;1.93;;;20.10;91.60;;;;;;5014973;28;20470;-68
2022/05/14 12:29:32;;;;;;;2.47;1.70;;;20.50;91.70;;;;;;4997626;28;20498;-68
2022/05/14 12:34:56;;;;;;;4.37;1.90;;;20.80;91.50;;;;;;5014926;28;20486;-67
2022/05/14 12:37:37;;;;;;;2.10;1.70;;;20.60;91.50;;;;;;5014742;28;20965;-67
2022/05/14 12:40:03;;;;;;;4.40;2.30;;;20.90;91.10;;;;;;5014951;28;20397;-67
2022/05/14 12:42:36;;;;;;;2.07;1.73;;;20.90;91.20;;;;;;5014589;28;20422;-67
2022/05/14 12:45:03;;;;;;;2.77;2.10;;;20.50;91.40;;;;;;5014891;28;20245;-67
2022/05/14 12:47:31;;;;;;;3.30;1.87;;;20.90;90.90;;;;;;5014745;28;20418;-67
2022/05/14 12:49:57;;;;;;;3.50;2.10;;;21.00;90.50;;;;;;4997004;28;20434;-67
2022/05/14 12:52:28;;;;;;;2.93;1.70;;;21.00;91.00;;;;;;5014895;28;20930;-67
2022/05/14 12:55:02;;;;;;;1.57;1.10;;;21.10;90.70;;;;;;5014559;28;20459;-67
2022/05/14 12:57:30;;;;;;;2.30;1.67;;;20.90;90.90;;;;;;5014708;28;20421;-66
2022/05/14 12:59:57;;;;;;;2.20;1.87;;;21.10;91.10;;;;;;5014859;28;20431;-67
2022/05/14 13:02:33;;;;;;;2.83;1.80;;;21.20;90.20;;;;;;5015530;28;20419;-68
2022/05/14 13:05:07;;;;;;;4.00;1.87;;;21.30;90.20;;;;;;5014909;28;20483;-67
2022/05/14 13:07:41;;;;;;;3.30;1.73;;;21.00;90.00;;;;;;5014733;28;20421;-66
2022/05/14 13:10:08;;;;;;;2.63;1.70;;;20.50;90.30;;;;;;5014315;28;20452;-67
2022/05/14 13:12:34;;;;;;;3.13;1.90;;;20.50;91.00;;;;;;5013961;28;20401;-67
2022/05/14 13:15:06;;;;;;;3.30;1.97;;;20.60;90.50;;;;;;4996121;28;20985;-67
2022/05/14 13:17:38;;;;;;;2.57;1.60;;;20.70;90.30;;;;;;5013850;28;20168;-66
2022/05/14 13:20:07;;;;;;;2.90;1.77;;;20.80;90.40;;;;;;5013971;28;20430;-66
2022/05/14 13:22:40;;;;;;;5.17;2.30;;;20.80;90.50;;;;;;5013290;28;20421;-67
2022/05/14 13:25:34;;;;;;;1.83;1.70;;;21.00;90.50;;;;;;5013902;28;20460;-67
2022/05/14 13:28:36;;;;;;;3.33;1.70;;;21.30;89.90;;;;;;5013776;28;20405;-66